Tiempo atmosférico en la estación meteorológica de Fuengirola, Málaga (3 m.)



Fecha
DESCASC
Temp. máxima en grados centígrados (hora)
DESCASC
Temp. mínima en grados centígrados (hora)
DESCASC
Temp. media en grados centígrados
DESCASC
Racha de viento máxima en m/sg (hora)
DESCASC
Velocidad máxima media en intervalos de 10 minutos(hora)
DESCASC
Precipitaciones diarias en mm
DESCASC
Precipitaciones de 00:00 a 06:00 en mm
DESCASC
Precipitaciones de 06:00 a 12:00 en mm
DESCASC
Precipitaciones de 12:00 a 18:00 en mm
DESCASC
Precipitaciones de 18:00 a 24:00 en mm
DESCASC
25-04-2019 18.8 (20:10) 15.3 (11:20) 17 11.67 (05:50) 3.61 (00:30) 7.1 0.5 6.3 0.3 0
24-04-2019 19.1 (18:50) 12.7 (05:40) 15.9 11.94 (14:50) 4.72 (20:30) 0.2 0 0.2 0 0
23-04-2019 17.5 (17:40) 13.2 (11:10) 15.3 14.72 (18:20) 5 (17:10) 3.8 0 3.8 0 0
22-04-2019 21.2 (14:40) 14.8 (00:00) 18 13.33 (06:20) 6.11 (06:20) 0 0 0 0 0
21-04-2019 24.1 (01:30) 13.7 (00:00) 18.9 7.22 (15:00) 4.72 (15:40) 7.1 0 0 4.4 2.7
20-04-2019 19.2 (01:30) 13.8 (00:00) 16.5 6.39 (14:20) 4.72 (14:20) 0.7 0 0 0.5 0.2
19-04-2019 22.9 (14:20) 13.8 (00:00) 18.3 6.67 (15:20) 4.72 (15:20) 0 0 0 0 0
18-04-2019 17.6 (19:40) 14.1 (00:00) 15.9 9.72 (20:40) 4.17 (20:50) 8.6 2.8 5.8 0 0
17-04-2019 23 (18:20) 15.9 (00:00) 19.4 11.39 (12:10) 5 (13:10) 0 0 0 0 0
16-04-2019 20 (16:20) 15.8 (00:00) 17.9 7.22 (03:40) 3.61 (23:59) 0 0 0 0 0
15-04-2019 22.8 (18:50) 15.5 (00:00) 19.1 10.56 (21:20) 5.28 (16:50) 0 0 0 0 0
14-04-2019 21.5 (19:40) 17.3 (00:00) 19.4 6.67 (17:00) 4.72 (17:00) 0 0 0 0 0
13-04-2019 22.3 (18:50) 16 (00:00) 19.1 8.06 (19:00) 3.61 (11:20) 0 0 0 0 0
12-04-2019 20.8 (19:30) 15.9 (00:00) 18.3 7.78 (16:30) 3.89 (14:40) 0 0 0 0 0
11-04-2019 22.3 (18:30) 15.2 (00:00) 18.7 10.28 (15:10) 7.22 (15:10) 0 0 0 0 0
10-04-2019 20.8 (18:50) 13.8 (00:00) 17.3 10.83 (17:20) 5 (17:10) 0 0 0 0 0
09-04-2019 18.7 (16:40) 14 (00:00) 16.4 13.06 (19:20) 5 (11:30) 0 0 0 0 0
08-04-2019 20 (17:00) 15 (00:00) 17.5 13.06 (16:00) 4.17 (16:40) 0 0 0 0 0
07-04-2019 18.2 (16:10) 13.2 (00:00) 15.7 12.5 (18:40) 3.61 (16:10) 0 0 0 0 0
06-04-2019 15.8 (18:00) 11.1 (00:00) 13.5 11.39 (16:50) 3.89 (15:20) 0 0 0 0 0
05-04-2019 17.1 (18:00) 12.5 (00:00) 14.8 13.33 (18:30) 3.89 (19:10) 7.3 0 4 3.3 0
04-04-2019 18.4 (00:30) 14 (00:00) 16.2 11.94 (20:40) 4.72 (11:40) 0 0 0 0 0
03-04-2019 22.1 (19:50) 14.1 (00:00) 18.1 6.94 (14:50) 4.72 (15:00) 0 0 0 0 0
02-04-2019 18.2 (20:10) 12.2 (00:00) 15.2 8.89 (16:00) 5 (16:10) 0 0 0 0 0
01-04-2019 17.3 (20:10) 13.7 (00:00) 15.5 6.11 (13:00) 4.44 (13:00) 1.9 0 0.2 1.7 0
31-03-2019 17.1 (18:20) 13 (00:00) 15.1 9.17 (01:30) 6.94 (01:30) 20 7.5 12.5 0 0
30-03-2019 16 (11:40) 14.9 (00:00) 15.4 10.56 (09:20) 7.5 (12:20) 1.4 0 0 0.1 1.3
29-03-2019 16.8 (14:30) 15.1 (00:00) 15.9 11.67 (03:30) 8.61 (03:30) 0 0 0 0 0
28-03-2019 17 (15:50) 14.6 (00:00) 15.8 13.06 (13:50) 9.17 (14:10) 0 0 0 0 0
27-03-2019 16.8 (14:00) 14.8 (00:00) 15.8 18.61 (08:00) 12.5 (08:10) 0 0 0 0 0

Gráficas

Temp. máximas Temp. mínimas Temp. medias Precipitaciones Rachas de viento máximas Velocidades máximas media en intervalos de 10 minutos

Datos horarios

Fecha y hora oficial Temperatura (ºC) Velocidad del viento (km/h) Dirección del viento Racha (km/h) Dirección de racha Precipitación (mm) Presión (hPa) Tendencia (hPa) Humedad (%)
2019-04-25 23:00:00 16.8 3 Oeste 17 Oeste 0 1019.5 2.8 64
2019-04-25 22:00:00 17.6 4 Oeste 14 Oeste 0 1018.4 2.2 60
2019-04-25 21:00:00 18.5 5 Noroeste 21 Noroeste 0 1017.3 0.9 58
2019-04-25 20:00:00 18.6 5 Oeste 32 Oeste 0 1016.7 0.5 63
2019-04-25 19:00:00 18.5 7 Oeste 33 Oeste 0 1016.2 0 73
2019-04-25 18:00:00 17.7 9 Oeste 28 Oeste 0 1016.4 0.2 82
2019-04-25 17:00:00 17 8 Sudoeste 24 Oeste 0 1016.2 -0.1 87
2019-04-25 16:00:00 17.2 5 Oeste 22 Sudoeste 0 1016.2 -0.2 82
2019-04-25 15:00:00 16.5 5 Sudeste 13 Sudeste 0 1016.2 0.5 96
2019-04-25 14:00:00 16.4 7 Nordeste 12 Nordeste 0.2 1016.3 1.1 96
2019-04-25 13:00:00 16.1 4 Sur 14 Nordeste 0.1 1016.4 1.9 94
2019-04-25 12:00:00 16 6 Oeste 27 Oeste 0 1015.7 1.7 99
2019-04-25 11:00:00 15.5 5 Oeste 23 Oeste 0.1 1015.2 1.9 99
2019-04-25 10:00:00 15.6 6 Oeste 31 Oeste 1.1 1014.5 1.5 99
2019-04-25 09:00:00 15.4 11 Sudoeste 40 Oeste 2.6 1014 1.3 99
2019-04-25 08:00:00 15.5 10 Sudoeste 39 Sudoeste 2.4 1013.3 0.4 99
2019-04-25 07:00:00 16.1 11 Sudoeste 40 Oeste 0.1 1013 -0.1 98
2019-04-25 06:00:00 16.2 10 Oeste 42 Oeste 0.2 1012.7 -0.8 97
2019-04-25 05:00:00 16.5 8 Sudoeste 30 Oeste 0 1012.9 -1.1 96
2019-04-25 04:00:00 16.3 7 Sudoeste 31 Oeste 0.3 1013.1 -1 97
2019-04-25 03:00:00 16.6 8 Sudoeste 31 Sudoeste 0 1013.5 -0.1 92
2019-04-25 02:00:00 16.6 7 Sudoeste 31 Oeste 0 1014 0.4 91
2019-04-25 01:00:00 16.9 8 Oeste 41 Oeste 0 1014.1 0.7 87
2019-04-25 00:00:00 16.8 10 Oeste 31 Oeste 0 1013.6 0.9 85
2019-04-24 23:00:00 17.3 8 Oeste 28 Oeste 0 1013.6 1.5 78
2019-04-24 22:00:00 17.4 5 Oeste 30 Noroeste 0 1013.4 1.3 73
2019-04-24 21:00:00 17.7 10 Oeste 42 Oeste 0 1012.7 0.7 70
2019-04-24 20:00:00 18.7 12 Oeste 36 Oeste 0 1012.1 0.1 67
2019-04-24 19:00:00 19 11 Oeste 36 Oeste 0 1012.1 -0.3 67
2019-04-24 18:00:00 18.1 9 Oeste 35 Oeste 0 1012 -0.3 71
2019-04-24 17:00:00 17.7 8 Oeste 33 Oeste 0 1012 -0.7 77
2019-04-24 16:00:00 17.4 13 Oeste 39 Oeste 0 1012.4 -0.3 75
2019-04-24 15:00:00 17.1 10 Oeste 43 Oeste 0 1012.3 -0.3 78
2019-04-24 14:00:00 16.6 8 Sudoeste 36 Sudoeste 0 1012.7 0.6 80
2019-04-24 13:00:00 15.8 8 Oeste 26 Oeste 0 1012.7 1 85
2019-04-24 12:00:00 15.2 6 Oeste 26 Oeste 0 1012.6 1.7 88
2019-04-24 11:00:00 14.9 6 Sudoeste 25 Oeste 0 1012.1 2 90
2019-04-24 10:00:00 14.1 3 Oeste 11 Oeste 0.2 1011.7 2.5 88
2019-04-24 09:00:00 13.7 0 Calma 5 Oeste 0 1010.9 2.1 87
2019-04-24 08:00:00 13.5 0 Calma 8 Oeste 0 1010.1 1.4 85
2019-04-24 07:00:00 12.9 0 Calma 8 Norte 0 1009.2 0.5 84
2019-04-24 06:00:00 13 2 Noroeste 12 Noroeste 0 1008.8 0 84
2019-04-24 05:00:00 13.1 4 Oeste 11 Norte 0 1008.7 0.2 83
2019-04-24 04:00:00 13.7 3 Oeste 9 Oeste 0 1008.7 0.3 82
2019-04-24 03:00:00 14 3 Oeste 18 Sudoeste 0 1008.8 0.4 80
2019-04-24 02:00:00 14.3 8 Oeste 22 Sudoeste 0 1008.5 1.2 79
2019-04-24 01:00:00 14.4 6 Oeste 21 Oeste 0 1008.4 1.7 76
2019-04-24 00:00:00 14.8 3 Oeste 18 Oeste 0 1008.4 3.2 71
2019-04-23 23:00:00 15 4 Oeste 28 Oeste 0 1007.3 3 71
2019-04-23 22:00:00 15.3 5 Oeste 26 Oeste 0 1006.7 2.9 66
2019-04-23 21:00:00 15.8 8 Oeste 39 Oeste 0 1005.2 2.2 63
2019-04-23 20:00:00 16.5 9 Oeste 38 Oeste 0 1004.3 1.7 60
2019-04-23 19:00:00 16.8 10 Oeste 53 Oeste 0 1003.8 1.4 60
2019-04-23 18:00:00 17.3 12 Oeste 47 Sur 0 1003 0 57
2019-04-23 17:00:00 16.4 16 Sudoeste 42 Sudoeste 0 1002.6 -0.3 68
2019-04-23 16:00:00 17.2 8 Sudoeste 30 Sudoeste 0 1002.4 -0.5 63
2019-04-23 15:00:00 15.7 14 Sur 22 Sur 0 1003 0.2 72
2019-04-23 14:00:00 15.6 13 Sur 25 Sudoeste 0 1002.9 2.1 74
2019-04-23 13:00:00 14.3 3 Sur 14 Nordeste 0 1002.9 2.4 78
2019-04-23 12:00:00 13.9 3 Este 24 Noroeste 0.2 1002.8 2.7 88
2019-04-23 11:00:00 13.8 0 Calma 21 Oeste 1.1 1000.8 1.2 95
2019-04-23 10:00:00 14.8 5 Oeste 23 Oeste 0.2 1000.5 0.9 98
2019-04-23 09:00:00 15 6 Oeste 38 Oeste 2.3 1000.1 -0.1 98
2019-04-23 08:00:00 15.9 9 Oeste 27 Oeste 0 999.6 -1 88
2019-04-23 07:00:00 16.3 4 Oeste 22 Oeste 0 999.6 -1.3 88
2019-04-23 06:00:00 16.4 4 Sudoeste 24 Sudoeste 0 1000.2 -1.5 87
2019-04-23 05:00:00 16.7 6 Sudoeste 27 Oeste 0 1000.6 -1.6 83
2019-04-23 04:00:00 16.8 6 Oeste 24 Oeste 0 1000.9 -1.5 83
2019-04-23 03:00:00 16.7 6 Oeste 24 Oeste 0 1001.7 -0.8 85
2019-04-23 02:00:00 16.7 9 Oeste 29 Noroeste 0 1002.2 -0.9 83
2019-04-23 01:00:00 16.9 8 Oeste 32 Oeste 0 1002.4 0 82
2019-04-23 00:00:00 17.1 11 Oeste 29 Oeste 0 1002.5 0.6 82
2019-04-22 23:00:00 17.1 6 Oeste 38 Oeste 0 1003.1 1.9 83
2019-04-22 22:00:00 17.6 9 Oeste 33 Oeste 0 1002.4 1.7 80
2019-04-22 21:00:00 18.2 10 Oeste 37 Oeste 0 1001.9 1.4 79
2019-04-22 20:00:00 18.9 12 Oeste 45 Oeste 0 1001.2 0.3 76
2019-04-22 19:00:00 19.8 10 Oeste 47 Sudoeste 0 1000.7 -1 75
2019-04-22 18:00:00 19.6 9 Oeste 34 Oeste 0 1000.5 -1.6 76
2019-04-22 17:00:00 19.9 10 Sudoeste 31 Oeste 0 1000.9 -1.7 74
2019-04-22 16:00:00 19.8 6 Sudoeste 31 Oeste 0 1001.7 -1.8 74
2019-04-22 15:00:00 20.1 12 Sudoeste 37 Sudoeste 0 1002.1 -1.9 66
2019-04-22 14:00:00 19.1 10 Sudoeste 28 Sudoeste 0 1002.6 -1.1 75
2019-04-22 13:00:00 17.8 8 Sudoeste 26 Sudoeste 0 1003.5 -0.2 74
2019-04-22 12:00:00 18.3 6 Oeste 21 Oeste 0 1004 0.3 65
2019-04-22 11:00:00 17.6 8 Noroeste 22 Noroeste 0 1003.7 0.8 64
2019-04-22 10:00:00 16.8 9 Noroeste 23 Norte 0 1003.7 1 66
2019-04-22 09:00:00 16.3 6 Noroeste 26 Noroeste 0 1003.7 1.5 67
2019-04-22 08:00:00 16.2 13 Noroeste 26 Norte 0 1002.9 0.3 67
2019-04-22 07:00:00 15.9 14 Noroeste 48 Norte 0 1002.7 -0.1 69
2019-04-22 06:00:00 16.1 21 Norte 39 Norte 0 1002.2 -1.2 69
2019-04-22 05:00:00 15.9 9 Noroeste 27 Oeste 0 1002.6 -1.5 73
2019-04-22 04:00:00 15.4 0 Calma 16 Oeste 0 1002.8 -1.9 77
2019-04-22 03:00:00 15.3 4 Nordeste 12 Norte 0 1003.4 -1.9 80
2019-04-22 02:00:00 15.1 3 Oeste 17 Noroeste 0 1004.1 -1.5 83
2019-04-22 01:00:00 15.5 4 Oeste 14 Oeste 0 1004.7 -0.8 87
2019-04-22 00:00:00 15.3 5 Noroeste 10 Oeste 0 1005.3 0.1 95
2019-04-21 23:00:00 15.3 3 Sur 7 Sudoeste 0 1005.6 0.3 98
2019-04-21 22:00:00 15 3 Sur 6 Sur 0.2 1005.5 -0.1 98
2019-04-21 21:00:00 15.4 3 Sur 6 Noroeste 0.1 1005.2 -0.4 98
2019-04-21 20:00:00 15.2 0 Calma 8 Sudoeste 0.5 1005.3 -0.2 98
2019-04-21 19:00:00 15.5 0 Calma 15 Oeste 1.9 1005.6 0.2 97
2019-04-21 18:00:00 16.3 3 Sur 10 Sur 4.3 1005.6 -0.1 95
2019-04-21 17:00:00 16.9 8 Sur 24 Sudoeste 0.1 1005.5 -0.6 92
2019-04-21 16:00:00 16.8 16 Sudoeste 26 Sudoeste 0 1005.4 -1.3 89
2019-04-21 15:00:00 16.6 13 Sudoeste 26 Sudoeste 0 1005.7 -1.3 87
2019-04-21 14:00:00 16.5 10 Sudoeste 24 Sudoeste 0 1006.1 -0.9 85
2019-04-21 13:00:00 16.4 15 Sudoeste 24 Sudoeste 0 1006.7 -0.3 88
2019-04-21 12:00:00 16.7 9 Sudoeste 17 Sur 0 1007 0.1 75
2019-04-21 11:00:00 16.5 3 Oeste 11 Sudoeste 0 1007 -0.2 73
2019-04-21 10:00:00 16.1 5 Oeste 17 Oeste 0 1007 -0.4 76
2019-04-21 09:00:00 15 2 Oeste 17 Oeste 0 1006.9 -0.8 82
2019-04-21 08:00:00 14.8 5 Noroeste 10 Noroeste 0 1007.2 -1.1 79
2019-04-21 07:00:00 14.8 4 Oeste 15 Oeste 0 1007.4 -1.6 84
2019-04-21 06:00:00 14.2 6 Oeste 18 Oeste 0 1007.7 -2.4 88
2019-04-21 05:00:00 14 7 Noroeste 14 Oeste 0 1008.3 -2.7 90
2019-04-21 04:00:00 14 4 Noroeste 15 Oeste 0 1009 -2.7 93
2019-04-21 03:00:00 14.5 8 Oeste 13 Oeste 0 1010.1 -2 93
2019-04-21 02:00:00 19.3 4 Noroeste 9 Noroeste 0 1011 -1.3 95
2019-04-21 01:00:00 15.2 3 Norte 7 Este 0 1011.7 -0.1 94
2019-04-21 00:00:00 15.8 8 Este 10 Este 0 1012.1 0.8 94
2019-04-20 23:00:00 16 5 Este 12 Sudeste 0 1012.3 1.5 95
2019-04-20 22:00:00 16 8 Este 14 Este 0 1011.8 1.5 95
2019-04-20 21:00:00 16.3 9 Este 13 Este 0.2 1011.3 1.5 93
2019-04-20 20:00:00 16.4 8 Este 14 Este 0 1010.8 0.7 89
2019-04-20 19:00:00 17.1 10 Sudeste 13 Sudeste 0 1010.3 0.2 86
2019-04-20 18:00:00 17.1 8 Sudeste 12 Sudeste 0 1009.8 -0.7 86
2019-04-20 17:00:00 16.3 7 Sur 13 Sur 0 1010.1 0.3 87
2019-04-20 16:00:00 16.2 3 Sur 10 Sur 0.4 1010.1 0.3 87
2019-04-20 15:00:00 16.5 8 Sudeste 23 Sudeste 0.1 1010.5 0.6 84
2019-04-20 14:00:00 17.3 16 Sudeste 23 Sudeste 0 1009.8 -0.3 80
2019-04-20 13:00:00 17.4 13 Sudeste 18 Sudeste 0 1009.8 -0.4 79
2019-04-20 12:00:00 17.4 7 Este 13 Este 0 1009.9 -0.4 77
2019-04-20 11:00:00 16.5 4 Sur 20 Oeste 0 1010.1 0.2 75
2019-04-20 10:00:00 15.5 5 Oeste 21 Oeste 0 1010.2 0.6 79
2019-04-20 09:00:00 15 4 Oeste 17 Sudoeste 0 1010.3 0.1 84
2019-04-20 08:00:00 14.8 4 Oeste 14 Oeste 0 1009.9 -1 83
2019-04-20 07:00:00 13.9 6 Oeste 15 Oeste 0 1009.6 -2.1 83
2019-04-20 06:00:00 14.1 6 Oeste 10 Oeste 0 1010.2 -2.2 82
2019-04-20 05:00:00 16.2 0 Calma 13 Norte 0 1010.9 -2.6 87
2019-04-20 04:00:00 13.9 2 Noroeste 13 Oeste 0 1011.7 -2.3 84
2019-04-20 03:00:00 14.1 8 Oeste 16 Oeste 0 1012.4 -1.8 84
2019-04-20 02:00:00 14.5 5 Noroeste 12 Oeste 0 1013.5 -1 83
2019-04-20 01:00:00 15.2 5 Noroeste 10 Oeste 0 1014 -0.2 83
2019-04-20 00:00:00 15.6 4 Oeste 8 Oeste 0 1014.2 0.5 84
2019-04-19 23:00:00 15.8 3 Nordeste 7 Sudeste 0 1014.5 1.4 90
2019-04-19 22:00:00 16.4 5 Sudeste 13 Este 0 1014.2 1.3 90
2019-04-19 21:00:00 16.6 9 Este 16 Sudeste 0 1013.7 1.3 88
2019-04-19 20:00:00 17.4 5 Sur 10 Sudoeste 0 1013.1 0.5 79
2019-04-19 19:00:00 17.4 6 Sur 13 Sudoeste 0 1012.9 -0.2 75
2019-04-19 18:00:00 17.4 8 Sur 18 Sudoeste 0 1012.4 -0.7 76
2019-04-19 17:00:00 17.2 8 Sudoeste 17 Sudoeste 0 1012.6 -0.8 74
2019-04-19 16:00:00 20.7 10 Sudoeste 24 Sudoeste 0 1013.1 -0.7 86
2019-04-19 15:00:00 17.2 11 Sudoeste 23 Sur 0 1013.1 -0.9 73
2019-04-19 14:00:00 17 9 Sur 16 Sudoeste 0 1013.4 0 75
2019-04-19 13:00:00 15.8 12 Sudoeste 18 Sudoeste 0 1013.8 0.7 82
2019-04-19 12:00:00 15.6 13 Sudoeste 20 Sudoeste 0 1014 1 87
2019-04-19 11:00:00 16.7 6 Este 17 Nordeste 0 1013.4 0.9 75
2019-04-19 10:00:00 16.2 6 Nordeste 18 Norte 0 1013.1 1 70
2019-04-19 09:00:00 14.6 5 Oeste 12 Oeste 0 1013 0.6 76
2019-04-19 08:00:00 14.2 3 Oeste 11 Noroeste 0 1012.5 -0.4 81
2019-04-19 07:00:00 17.8 5 Noroeste 17 Oeste 0 1012.1 -1.1 80
2019-04-19 06:00:00 14 4 Noroeste 11 Oeste 0 1012.4 -1.1 78
2019-04-19 05:00:00 14.3 3 Oeste 13 Oeste 0 1012.9 -1 79
2019-04-19 04:00:00 14.3 7 Oeste 13 Oeste 0 1013.2 -0.5 81
2019-04-19 03:00:00 14.7 5 Este 11 Este 0 1013.5 0.1 79
2019-04-19 02:00:00 15.1 4 Nordeste 13 Oeste 0 1013.9 0.9 79
2019-04-19 01:00:00 14.8 4 Noroeste 11 Oeste 0 1013.7 0.9 78
2019-04-19 00:00:00 14.8 8 Oeste 15 Oeste 0 1013.4 1.3 77
2019-04-18 23:00:00 15.4 5 Oeste 18 Oeste 0 1013 1.3 76
2019-04-18 22:00:00 15.4 3 Oeste 29 Norte 0 1012.8 1.1 77
2019-04-18 21:00:00 16.3 11 Norte 35 Nordeste 0 1012.1 0.6 78
2019-04-18 20:00:00 17 0 Calma 17 Sudoeste 0 1011.7 0.3 85
2019-04-18 19:00:00 17 7 Sudoeste 21 Sudoeste 0 1011.7 -0.3 84
2019-04-18 18:00:00 16.6 10 Sudoeste 28 Sudoeste 0 1011.5 -0.4 85
2019-04-18 17:00:00 16.9 8 Sudoeste 24 Sudoeste 0 1011.4 -0.6 86
2019-04-18 16:00:00 16.2 9 Sudoeste 23 Sudoeste 0 1012 -0.5 90
2019-04-18 15:00:00 15.9 12 Sudoeste 26 Sur 0 1011.9 -1 84
2019-04-18 14:00:00 16.4 9 Sudoeste 24 Sudoeste 0 1012 -0.9 79
2019-04-18 13:00:00 15.6 9 Sudeste 14 Sudeste 0 1012.5 -0.5 95
2019-04-18 12:00:00 14.8 8 Norte 32 Norte 1.2 1012.9 0.5 87
2019-04-18 11:00:00 15.4 6 Sur 10 Sur 0 1012.9 0.7 98
2019-04-18 10:00:00 14.8 3 Sudoeste 9 Oeste 0 1013 1.1 98
2019-04-18 09:00:00 14.4 0 Calma 8 Oeste 0 1012.4 0.6 99
2019-04-18 08:00:00 14.3 0 Calma 10 Sudoeste 3.8 1012.2 -0.2 99
2019-04-18 07:00:00 15.1 4 Sudoeste 9 Sudoeste 0.8 1011.9 -0.3 98
2019-04-18 06:00:00 15.7 0 Calma 6 Oeste 1 1011.8 -0.6 98
2019-04-18 05:00:00 16 0 Calma 11 Oeste 1.3 1012.4 -0.3 97
2019-04-18 04:00:00 16.2 5 Oeste 16 Oeste 0.5 1012.2 -0.5 97
2019-04-18 03:00:00 16.3 3 Oeste 18 Sur 0 1012.4 -0.8 98
2019-04-18 02:00:00 16.7 11 Sudeste 21 Sudeste 0 1012.7 -1.3 96
2019-04-18 01:00:00 16.8 6 Este 15 Este 0 1012.7 0 94
2019-04-18 00:00:00 16.8 4 Norte 12 Norte 0 1013.2 0.9 92
2019-04-17 23:00:00 16.7 3 Oeste 16 Oeste 0 1014 1.9 92
2019-04-17 22:00:00 16.8 4 Oeste 12 Oeste 0 1012.7 1.1 92
2019-04-17 21:00:00 16.8 3 Sudoeste 12 Sudoeste 0 1012.3 1.4 93
2019-04-17 20:00:00 16.9 3 Oeste 16 Sudoeste 0 1012.1 0.9 92
2019-04-17 19:00:00 17.1 4 Sudoeste 15 Sur 0 1011.6 -0.1 90
2019-04-17 18:00:00 17.1 0 Calma 17 Sudoeste 0 1010.9 -1 90
2019-04-17 17:00:00 16.9 3 Sudoeste 13 Sudoeste 0 1011.2 -1 91
2019-04-17 16:00:00 17.6 2 Sudeste 11 Sudeste 0 1011.7 -2.1 90
2019-04-17 15:00:00 18 5 Este 19 Este 0 1011.9 -2.1 91
2019-04-17 14:00:00 17.5 10 Sudeste 24 Sudeste 0 1012.2 -2.1 93
2019-04-17 13:00:00 17.4 14 Sudeste 41 Sudeste 0 1013.8 -0.4 93
2019-04-17 12:00:00 17.2 16 Sudeste 23 Sudeste 0 1014 -0.2 93
2019-04-17 11:00:00 17.1 0 Calma 8 Sudeste 0 1014.3 0.8 90
2019-04-17 10:00:00 16.9 5 Sudeste 13 Sudeste 0 1014.2 0.5 90
2019-04-17 09:00:00 16.2 4 Noroeste 9 Nordeste 0 1014.2 0.2 90
2019-04-17 08:00:00 16.2 4 Nordeste 9 Nordeste 0 1013.5 -0.7 90
2019-04-17 07:00:00 16.5 4 Nordeste 15 Este 0 1013.7 -1.1 90
2019-04-17 06:00:00 16.6 9 Este 16 Este 0 1014 -1.3 90
2019-04-17 05:00:00 16.6 12 Nordeste 19 Nordeste 0 1014.2 -1.9 90
2019-04-17 04:00:00 16.7 10 Nordeste 19 Este 0 1014.8 -1 91
2019-04-17 03:00:00 16.8 12 Este 25 Nordeste 0 1015.3 -0.7 93
2019-04-17 02:00:00 17 17 Este 25 Nordeste 0 1016.1 0.4 93
2019-04-17 01:00:00 17.1 13 Nordeste 23 Este 0 1015.8 0.6 93
2019-04-17 00:00:00 16.8 13 Este 19 Este 0 1016 1.6 96
2019-04-16 23:00:00 16.8 10 Este 16 Este 0 1015.7 1.5 98
2019-04-16 22:00:00 17.3 7 Este 13 Este 0 1015.2 0.9 95
2019-04-16 21:00:00 17.4 3 Nordeste 8 Este 0 1014.4 0 92
2019-04-16 20:00:00 18.4 5 Nordeste 9 Este 0 1014.2 -0.5 90
2019-04-16 19:00:00 19.4 6 Este 12 Este 0 1014.3 -1.2 87
2019-04-16 18:00:00 19.5 6 Sudeste 12 Sudeste 0 1014.4 -1.7 86
2019-04-16 17:00:00 19.5 8 Este 17 Este 0 1014.7 -1.6 87
2019-04-16 16:00:00 19.5 10 Este 17 Este 0 1015.5 -1.1 86
2019-04-16 15:00:00 19.1 8 Sudeste 13 Sudeste 0 1016.1 -0.8 88
2019-04-16 14:00:00 18 5 Sudeste 13 Sur 0 1016.3 0.1 91
2019-04-16 13:00:00 17.1 12 Sur 18 Sur 0 1016.6 0.7 90
2019-04-16 12:00:00 18.6 4 Este 13 Sudoeste 0 1016.9 1 79
2019-04-16 11:00:00 17.5 10 Sudoeste 15 Sur 0 1016.2 0.2 85
2019-04-16 10:00:00 18.3 0 Calma 12 Sudoeste 0 1015.9 0.4 76
2019-04-16 09:00:00 16.8 0 Calma 20 Norte 0 1015.9 0 79
2019-04-16 08:00:00 16.5 3 Sur 17 Sudoeste 0 1016 0 82
2019-04-16 07:00:00 16.3 4 Sudoeste 15 Sudoeste 0 1015.5 -1 83
2019-04-16 06:00:00 16.6 2 Oeste 9 Norte 0 1015.9 -0.9 80
2019-04-16 05:00:00 15.9 2 Noroeste 16 Oeste 0 1016 -0.7 84
2019-04-16 04:00:00 15.9 8 Noroeste 26 Oeste 0 1016.5 -0.2 86
2019-04-16 03:00:00 16.4 7 Oeste 24 Oeste 0 1016.8 0.2 84
2019-04-16 02:00:00 16.8 6 Oeste 22 Oeste 0 1016.7 0.5 82
2019-04-16 01:00:00 17.4 6 Oeste 22 Oeste 0 1016.7 1.8 82
2019-04-16 00:00:00 17.9 8 Oeste 30 Oeste 0 1016.6 2.6 80
2019-04-15 23:00:00 19 10 Oeste 27 Oeste 0 1016.2 2.6 74
2019-04-15 22:00:00 19.7 9 Oeste 38 Oeste 0 1014.9 1.9 72
2019-04-15 21:00:00 20.4 12 Oeste 37 Oeste 0 1014 1 63
2019-04-15 20:00:00 22.1 4 Oeste 26 Oeste 0 1013.6 1.1 61
2019-04-15 19:00:00 21.4 8 Sudoeste 28 Oeste 0 1013 0 63
2019-04-15 18:00:00 22.2 9 Oeste 27 Oeste 0 1013 0.2 63
2019-04-15 17:00:00 18.9 17 Sudoeste 27 Sudoeste 0 1012.5 -0.6 82
2019-04-15 16:00:00 19.8 13 Sudoeste 21 Sudoeste 0 1013 -0.6 72
2019-04-15 15:00:00 19.1 11 Sudoeste 24 Sudoeste 0 1012.8 -1.1 79
2019-04-15 14:00:00 18.2 14 Sudoeste 21 Sudoeste 0 1013.1 -0.3 82
2019-04-15 13:00:00 18 13 Sudoeste 18 Sudoeste 0 1013.6 0.4 81
2019-04-15 12:00:00 18.4 3 Sur 4 Sur 0 1013.9 0.4 82
2019-04-15 11:00:00 17.7 2 Sudeste 3 Este 0 1013.4 0.6 78
2019-04-15 10:00:00 17.2 0 Calma 6 Oeste 0 1013.2 0.9 80
2019-04-15 09:00:00 16.2 6 Noroeste 16 Oeste 0 1013.5 1.5 79
2019-04-15 08:00:00 15.7 5 Noroeste 13 Oeste 0 1012.8 0.2 83
2019-04-15 07:00:00 15.7 5 Oeste 10 Este 0 1012.3 -1 87
2019-04-15 06:00:00 16.6 4 Nordeste 10 Nordeste 0 1012 -1.6 91
2019-04-15 05:00:00 17 0 Calma 9 Sudeste 0 1012.6 -1.8 85
2019-04-15 04:00:00 17.3 7 Oeste 12 Oeste 0 1013.3 -1.2 81
2019-04-15 03:00:00 17.4 0 Calma 5 Nordeste 0 1013.6 -1.3 85
2019-04-15 02:00:00 18.1 5 Nordeste 9 Nordeste 0 1014.4 -0.3 82
2019-04-15 01:00:00 18.1 0 Calma 5 Este 0 1014.5 0.3 81
2019-04-15 00:00:00 18 4 Nordeste 12 Nordeste 0 1014.9 1 84
2019-04-14 23:00:00 18.5 8 Nordeste 13 Nordeste 0 1014.7 1 80
2019-04-14 22:00:00 18.9 2 Sudoeste 15 Oeste 0 1014.2 0.1 73
2019-04-14 21:00:00 20.2 4 Oeste 15 Oeste 0 1013.9 -0.4 60
2019-04-14 20:00:00 19.5 9 Sudoeste 19 Sudoeste 0 1013.7 -1.1 74
2019-04-14 19:00:00 21 9 Sudoeste 19 Sur 0 1014.1 -1.7 62
2019-04-14 18:00:00 19.8 12 Sudoeste 23 Sudoeste 0 1014.3 -2.2 73
2019-04-14 17:00:00 18.4 17 Sudoeste 24 Sudoeste 0 1014.8 -2 87
2019-04-14 16:00:00 18.5 13 Sur 17 Sur 0 1015.8 -1.6 90
2019-04-14 15:00:00 18.7 6 Sur 9 Sur 0 1016.5 -1.3 86
2019-04-14 14:00:00 19 5 Sur 8 Sudeste 0 1016.8 -1 85
2019-04-14 13:00:00 18.6 4 Sudeste 8 Este 0 1017.4 0.2 85
2019-04-14 12:00:00 18 4 Sudeste 10 Este 0 1017.8 0.8 90
2019-04-14 11:00:00 17.7 6 Nordeste 10 Nordeste 0 1017.8 1.2 85
2019-04-14 10:00:00 17.7 8 Nordeste 10 Nordeste 0 1017.2 1 71
2019-04-14 09:00:00 17.8 2 Nordeste 13 Oeste 0 1017 0.8 63
2019-04-14 08:00:00 17.6 3 Noroeste 12 Noroeste 0 1016.6 0.3 61
2019-04-14 07:00:00 17.7 7 Oeste 12 Oeste 0 1016.2 -0.3 61
2019-04-14 06:00:00 17.9 5 Noroeste 15 Oeste 0 1016.2 -0.7 60
2019-04-14 05:00:00 17.6 3 Oeste 16 Oeste 0 1016.3 -1.2 60
2019-04-14 04:00:00 18 7 Oeste 19 Oeste 0 1016.5 -1.5 60
2019-04-14 03:00:00 18.2 8 Noroeste 14 Oeste 0 1016.9 -1.2 60
2019-04-14 02:00:00 18.6 8 Noroeste 20 Oeste 0 1017.5 -0.9 59
2019-04-14 01:00:00 18.3 3 Noroeste 15 Oeste 0 1018 0.3 61
2019-04-14 00:00:00 18.6 6 Oeste 12 Oeste 0 1018.1 1 68
2019-04-13 23:00:00 19.3 4 Noroeste 9 Norte 0 1018.4 1.6 70
2019-04-13 22:00:00 19.9 4 Oeste 14 Oeste 0 1017.7 1 70
2019-04-13 21:00:00 20.1 4 Oeste 12 Oeste 0 1017.1 0.5 71
2019-04-13 20:00:00 21.3 3 Sudoeste 24 Noroeste 0 1016.8 -0.1 64
2019-04-13 19:00:00 22.2 10 Oeste 29 Oeste 0 1016.7 -0.6 53
2019-04-13 18:00:00 21.7 5 Oeste 26 Oeste 0 1016.6 -1.2 50
2019-04-13 17:00:00 21.2 7 Sudoeste 28 Sudoeste 0 1016.9 -1.2 52
2019-04-13 16:00:00 20.4 7 Sudoeste 26 Sudoeste 0 1017.3 -1 58
2019-04-13 15:00:00 20.3 10 Sudoeste 23 Sur 0 1017.8 -0.9 56
2019-04-13 14:00:00 19.8 4 Sudoeste 21 Sudoeste 0 1018.1 -0.4 59
2019-04-13 13:00:00 17.5 13 Sudoeste 20 Sudoeste 0 1018.3 0.3 72
2019-04-13 12:00:00 17.5 13 Sudoeste 19 Sudoeste 0 1018.7 1.1 74
2019-04-13 11:00:00 16.7 10 Sudoeste 16 Sudoeste 0 1018.5 1.2 82
2019-04-13 10:00:00 18.7 0 Calma 13 Sur 0 1018 1.3 60
2019-04-13 09:00:00 17.2 9 Noroeste 16 Noroeste 0 1017.6 1.3 59
2019-04-13 08:00:00 16.2 8 Noroeste 14 Oeste 0 1017.3 1 60
2019-04-13 07:00:00 16.5 6 Noroeste 12 Noroeste 0 1016.7 0.3 59
2019-04-13 06:00:00 16.7 3 Noroeste 16 Oeste 0 1016.3 -0.6 58
2019-04-13 05:00:00 17.1 7 Noroeste 17 Oeste 0 1016.3 -1 57
2019-04-13 04:00:00 17.1 5 Noroeste 17 Oeste 0 1016.4 -0.8 57
2019-04-13 03:00:00 16.7 5 Oeste 14 Oeste 0 1016.9 0.1 58
2019-04-13 02:00:00 17.4 6 Noroeste 16 Oeste 0 1017.3 1 57
2019-04-13 01:00:00 17.3 8 Noroeste 19 Noroeste 0 1017.2 1.5 58
2019-04-13 00:00:00 17.7 6 Noroeste 13 Oeste 0 1016.8 1.7 63
2019-04-12 23:00:00 18.1 5 Noroeste 12 Oeste 0 1016.3 1.2 67
2019-04-12 22:00:00 18.2 0 Calma 11 Sudoeste 0 1015.7 0.6 77
2019-04-12 21:00:00 19 3 Sudoeste 17 Noroeste 0 1015.1 0 71
2019-04-12 20:00:00 20.2 6 Oeste 21 Oeste 0 1015.1 -0.1 61
2019-04-12 19:00:00 20.3 4 Sudoeste 21 Oeste 0 1015.1 -0.8 58
2019-04-12 18:00:00 20.3 6 Sudoeste 27 Sudoeste 0 1015.1 -1.3 52
2019-04-12 17:00:00 20 8 Sudoeste 28 Sudoeste 0 1015.2 -1.7 53
2019-04-12 16:00:00 19.3 10 Sudoeste 22 Sudoeste 0 1015.9 -1.2 56
2019-04-12 15:00:00 19 10 Sudoeste 27 Sudoeste 0 1016.4 -0.8 59
2019-04-12 14:00:00 18.3 9 Sudoeste 19 Sur 0 1016.9 0.1 65
2019-04-12 13:00:00 17.8 10 Sur 14 Sur 0 1017.1 0.5 75
2019-04-12 12:00:00 17.8 11 Sur 14 Sur 0 1017.2 0.8 69
2019-04-12 11:00:00 19.9 5 Este 19 Norte 0 1016.8 1.1 49
2019-04-12 10:00:00 18.9 12 Norte 20 Norte 0 1016.6 1 53
2019-04-12 09:00:00 17.1 0 Calma 17 Noroeste 0 1016.4 1.1 60
2019-04-12 08:00:00 16.7 8 Noroeste 18 Oeste 0 1015.7 0.3 59
2019-04-12 07:00:00 16.2 5 Noroeste 17 Noroeste 0 1015.6 -0.1 60
2019-04-12 06:00:00 16.2 5 Oeste 13 Oeste 0 1015.3 -1 63
2019-04-12 05:00:00 16.4 5 Noroeste 13 Noroeste 0 1015.4 -1.6 63
2019-04-12 04:00:00 16.8 6 Noroeste 19 Norte 0 1015.7 -1.1 59
2019-04-12 03:00:00 16.5 5 Noroeste 12 Oeste 0 1016.3 -0.3 60
2019-04-12 02:00:00 16.5 5 Oeste 11 Sudoeste 0 1017 0.4 58
2019-04-12 01:00:00 17 4 Oeste 12 Oeste 0 1016.8 0.7 57
2019-04-12 00:00:00 17.7 3 Oeste 10 Norte 0 1016.6 1.3 55
2019-04-11 23:00:00 18.9 2 Oeste 11 Oeste 0 1016.6 1.6 51
2019-04-11 22:00:00 19.5 4 Oeste 13 Norte 0 1016.1 1 49
2019-04-11 21:00:00 20.5 3 Norte 20 Norte 0 1015.3 0.6 45
2019-04-11 20:00:00 21.4 6 Norte 33 Nordeste 0 1015 0.2 43
2019-04-11 19:00:00 22 12 Norte 31 Norte 0 1015.1 -0.1 44
2019-04-11 18:00:00 21.7 12 Norte 28 Nordeste 0 1014.7 -1 49
2019-04-11 17:00:00 19.1 11 Sudoeste 26 Sudoeste 0 1014.8 -1.5 72
2019-04-11 16:00:00 18.1 10 Sudoeste 37 Sudoeste 0 1015.2 -1.6 74
2019-04-11 15:00:00 17.4 14 Sudoeste 33 Sudoeste 0 1015.7 -1.1 76
2019-04-11 14:00:00 17.7 13 Sudoeste 29 Sudoeste 0 1016.3 -0.6 68
2019-04-11 13:00:00 16.9 10 Sudoeste 25 Sudoeste 0 1016.8 0.1 69
2019-04-11 12:00:00 16.6 10 Sudoeste 24 Sudoeste 0 1016.8 0.3 71
2019-04-11 11:00:00 17.5 7 Sudeste 21 Nordeste 0 1016.9 0.8 65
2019-04-11 10:00:00 17 3 Norte 18 Sudeste 0 1016.7 0.9 61
2019-04-11 09:00:00 15.7 5 Oeste 16 Oeste 0 1016.5 0.5 65
2019-04-11 08:00:00 15.3 5 Oeste 13 Oeste 0 1016.1 0 65
2019-04-11 07:00:00 15.3 0 Calma 16 Norte 0 1015.8 -0.3 68
2019-04-11 06:00:00 16.2 12 Norte 21 Norte 0 1016 -0.4 62
2019-04-11 05:00:00 15.9 7 Noroeste 17 Norte 0 1016.1 -0.5 62
2019-04-11 04:00:00 16.1 3 Oeste 18 Oeste 0 1016.1 -0.5 62
2019-04-11 03:00:00 16.2 5 Oeste 18 Oeste 0 1016.4 -0.1 63
2019-04-11 02:00:00 16.4 2 Sudoeste 10 Norte 0 1016.6 0.2 68
2019-04-11 01:00:00 17.6 5 Noroeste 13 Norte 0 1016.6 0.8 60
2019-04-11 00:00:00 16.9 5 Noroeste 14 Oeste 0 1016.5 1.8 71
2019-04-10 23:00:00 17.5 2 Sudoeste 20 Oeste 0 1016.4 2 70
2019-04-10 22:00:00 17.9 5 Oeste 15 Oeste 0 1015.8 1.4 68
2019-04-10 21:00:00 17.9 8 Sudoeste 17 Sudoeste 0 1014.7 0.4 68
2019-04-10 20:00:00 20.1 4 Noroeste 28 Norte 0 1014.4 0 47
2019-04-10 19:00:00 20.7 13 Noroeste 33 Noroeste 0 1014.4 -0.4 46
2019-04-10 18:00:00 20 14 Noroeste 39 Norte 0 1014.3 -0.8 46
2019-04-10 17:00:00 20 15 Norte 37 Nordeste 0 1014.4 -1.2 48
2019-04-10 16:00:00 17.7 3 Sur 21 Sudoeste 0 1014.8 -1.3 66
2019-04-10 15:00:00 16.7 13 Sudoeste 23 Sudoeste 0 1015.1 -1.4 66
2019-04-10 14:00:00 16.2 12 Sudoeste 24 Sudoeste 0 1015.6 -1 68
2019-04-10 13:00:00 16.4 13 Sur 22 Norte 0 1016.1 -0.6 66
2019-04-10 12:00:00 16.7 12 Norte 29 Noroeste 0 1016.5 0 59
2019-04-10 11:00:00 15.9 11 Norte 22 Norte 0 1016.6 0.5 61
2019-04-10 10:00:00 15.1 5 Norte 19 Noroeste 0 1016.7 0.8 65
2019-04-10 09:00:00 14.3 6 Nordeste 15 Norte 0 1016.5 0.6 68
2019-04-10 08:00:00 13.9 4 Oeste 18 Sudoeste 0 1016.1 0.1 69
2019-04-10 07:00:00 14.5 4 Oeste 17 Norte 0 1015.9 -0.3 69
2019-04-10 06:00:00 14.8 9 Norte 20 Norte 0 1015.9 -0.6 68
2019-04-10 05:00:00 15.5 6 Noroeste 24 Oeste 0 1016 -0.7 68
2019-04-10 04:00:00 15.5 8 Noroeste 22 Noroeste 0 1016.2 -0.5 68
2019-04-10 03:00:00 15.3 4 Noroeste 17 Oeste 0 1016.5 -0.5 69
2019-04-10 02:00:00 15 4 Oeste 14 Oeste 0 1016.7 -0.2 73
2019-04-10 01:00:00 15.4 6 Oeste 13 Oeste 0 1016.7 0.5 70
2019-04-10 00:00:00 15.7 4 Oeste 11 Oeste 0 1017 1.3 70
2019-04-09 23:00:00 16.4 4 Oeste 18 Oeste 0 1016.9 1.7 69
2019-04-09 22:00:00 16.7 6 Oeste 17 Oeste 0 1016.2 1.4 68
2019-04-09 21:00:00 17.1 8 Oeste 27 Sudoeste 0 1015.7 0.9 67
2019-04-09 20:00:00 17.6 7 Sudoeste 47 Oeste 0 1015.2 -0.1 65
2019-04-09 19:00:00 18.3 10 Oeste 44 Oeste 0 1014.8 -0.9 62
2019-04-09 18:00:00 18.5 11 Sudoeste 34 Oeste 0 1014.8 -1.6 60
2019-04-09 17:00:00 18.3 10 Sudoeste 36 Oeste 0 1015.3 -1.4 63
2019-04-09 16:00:00 17.8 9 Oeste 37 Oeste 0 1015.7 -1.7 66
2019-04-09 15:00:00 18.3 7 Oeste 32 Noroeste 0 1016.4 -1.4 60
2019-04-09 14:00:00 17.4 10 Oeste 32 Oeste 0 1016.7 -1.3 65
2019-04-09 13:00:00 15.9 12 Sudoeste 30 Sudoeste 0 1017.4 -0.6 78
2019-04-09 12:00:00 16.2 7 Sudoeste 25 Sudoeste 0 1017.8 0.2 67
2019-04-09 11:00:00 15.3 14 Sudoeste 19 Sudoeste 0 1018 1 71
2019-04-09 10:00:00 15.5 6 Noroeste 20 Norte 0 1018 1.4 65
2019-04-09 09:00:00 14.1 4 Noroeste 14 Noroeste 0 1017.6 1.2 68
2019-04-09 08:00:00 14.4 6 Noroeste 20 Oeste 0 1017 0.6 67
2019-04-09 07:00:00 14.1 4 Noroeste 18 Noroeste 0 1016.6 0.1 69
2019-04-09 06:00:00 14.5 4 Noroeste 22 Noroeste 0 1016.4 -0.2 68
2019-04-09 05:00:00 14.8 3 Noroeste 9 Noroeste 0 1016.4 -0.1 71
2019-04-09 04:00:00 15.1 2 Oeste 12 Oeste 0 1016.5 0.1 77
2019-04-09 03:00:00 15.1 5 Oeste 17 Noroeste 0 1016.6 0.2 80
2019-04-09 02:00:00 15 2 Oeste 14 Oeste 0 1016.5 0 87
2019-04-09 01:00:00 15.1 6 Oeste 19 Oeste 0 1016.4 0.6 89
2019-04-09 00:00:00 15.8 5 Oeste 21 Sudoeste 0 1016.4 1.2 88
2019-04-08 23:00:00 16.1 5 Oeste 24 Oeste 0 1016.5 1.7 88
2019-04-08 22:00:00 15.9 9 Oeste 25 Oeste 0 1015.8 1 91
2019-04-08 21:00:00 16.4 6 Oeste 27 Oeste 0 1015.2 0.5 86
2019-04-08 20:00:00 17.4 8 Oeste 35 Oeste 0 1014.8 0.1 76
2019-04-08 19:00:00 18.9 8 Oeste 40 Noroeste 0 1014.8 -0.5 69
2019-04-08 18:00:00 19.5 10 Oeste 44 Oeste 0 1014.7 -0.9 66
2019-04-08 17:00:00 20 13 Oeste 42 Oeste 0 1014.7 -1.2 67
2019-04-08 16:00:00 18.7 13 Oeste 47 Oeste 0 1015.3 -1 74
2019-04-08 15:00:00 18.7 13 Oeste 42 Oeste 0 1015.6 -0.5 76
2019-04-08 14:00:00 18.1 9 Sudoeste 41 Sudoeste 0 1015.9 -0.3 82
2019-04-08 13:00:00 17.4 6 Oeste 36 Oeste 0 1016.3 0 84
2019-04-08 12:00:00 17.2 9 Oeste 32 Oeste 0 1016.1 -0.3 84
2019-04-08 11:00:00 16.8 6 Oeste 23 Sudoeste 0 1016.2 0.5 85
2019-04-08 10:00:00 15.6 4 Oeste 10 Noroeste 0 1016.3 0.9 93
2019-04-08 09:00:00 15 4 Oeste 12 Oeste 0 1016.4 1 94
2019-04-08 08:00:00 15 4 Norte 10 Nordeste 0 1015.7 -0.3 94
2019-04-08 07:00:00 15.2 5 Noroeste 13 Oeste 0 1015.4 -0.6 94
2019-04-08 06:00:00 15.3 2 Noroeste 13 Noroeste 0 1015.4 -0.9 94
2019-04-08 05:00:00 15.4 0 Calma 13 Noroeste 0 1016 -0.7 94
2019-04-08 04:00:00 15.4 4 Norte 9 Este 0 1016 -0.9 94
2019-04-08 03:00:00 15.4 2 Noroeste 11 Oeste 0 1016.3 -0.4 93
2019-04-08 02:00:00 15.5 2 Oeste 13 Oeste 0 1016.7 0.3 93
2019-04-08 01:00:00 15.5 3 Noroeste 14 Oeste 0 1016.9 0.7 93
2019-04-08 00:00:00 15.7 3 Noroeste 32 Oeste 0 1016.7 0.9 95
2019-04-07 23:00:00 15.9 9 Oeste 35 Oeste 0 1016.4 0.7 95
2019-04-07 22:00:00 15.9 10 Oeste 29 Oeste 0 1016.2 0.6 95
2019-04-07 21:00:00 15.5 9 Oeste 30 Oeste 0 1015.8 0.8 96
2019-04-07 20:00:00 15.5 9 Oeste 35 Noroeste 0 1015.7 1.2 92
2019-04-07 19:00:00 16 10 Oeste 45 Oeste 0 1015.6 1 85
2019-04-07 18:00:00 16.3 11 Oeste 34 Oeste 0 1015 0.1 80
2019-04-07 17:00:00 17.3 11 Oeste 41 Oeste 0 1014.5 -0.4 72
2019-04-07 16:00:00 18 12 Oeste 38 Oeste 0 1014.6 -0.6 67
2019-04-07 15:00:00 16.9 8 Oeste 40 Oeste 0 1014.9 0.1 75
2019-04-07 14:00:00 16.7 8 Oeste 32 Oeste 0 1014.9 0.5 73
2019-04-07 13:00:00 16.3 3 Nordeste 20 Oeste 0 1015.2 1.3 72
2019-04-07 12:00:00 16 5 Oeste 19 Sudoeste 0 1014.8 1.4 72
2019-04-07 11:00:00 15.6 4 Oeste 17 Oeste 0 1014.4 1.5 69
2019-04-07 10:00:00 15 9 Oeste 22 Noroeste 0 1013.9 1.5 71
2019-04-07 09:00:00 14 4 Oeste 14 Oeste 0 1013.4 1.1 74
2019-04-07 08:00:00 13.7 4 Noroeste 17 Noroeste 0 1012.9 0.5 75
2019-04-07 07:00:00 13.2 5 Oeste 13 Oeste 0 1012.4 -0.1 81
2019-04-07 06:00:00 13.5 0 Calma 16 Noroeste 0 1012.3 -0.3 82
2019-04-07 05:00:00 13.5 9 Oeste 22 Oeste 0 1012.4 -0.1 85
2019-04-07 04:00:00 13.8 7 Noroeste 20 Oeste 0 1012.5 0.2 77
2019-04-07 03:00:00 14.1 6 Oeste 14 Oeste 0 1012.6 0.6 76
2019-04-07 02:00:00 14.3 4 Oeste 14 Sudoeste 0 1012.5 1.1 75
2019-04-07 01:00:00 14.3 2 Norte 28 Oeste 0 1012.3 1.7 76
2019-04-07 00:00:00 14.5 8 Oeste 28 Oeste 0 1012 2 76
2019-04-06 23:00:00 14.8 12 Oeste 32 Oeste 0 1011.4 2.3 74
2019-04-06 22:00:00 15.1 9 Oeste 33 Oeste 0 1010.6 2.2 72
2019-04-06 21:00:00 15.2 9 Oeste 29 Oeste 0 1010 1.7 72
2019-04-06 20:00:00 15.7 8 Oeste 39 Oeste 0 1009.1 0.8 70
2019-04-06 19:00:00 15.5 14 Oeste 37 Oeste 0 1008.4 -0.2 75
2019-04-06 18:00:00 15.7 10 Oeste 38 Noroeste 0 1008.3 -0.7 71
2019-04-06 17:00:00 15 7 Oeste 41 Oeste 0 1008.3 -1 74
2019-04-06 16:00:00 15 12 Sudoeste 40 Oeste 0 1008.6 -0.7 74
2019-04-06 15:00:00 14.9 9 Oeste 37 Oeste 0 1009 -0.5 75
2019-04-06 14:00:00 15.6 9 Oeste 34 Sudoeste 0 1009.3 -0.2 72
2019-04-06 13:00:00 14.8 8 Sudoeste 31 Sudoeste 0 1009.3 -0.2 74
2019-04-06 12:00:00 14 9 Sudoeste 27 Oeste 0 1009.5 0.5 77
2019-04-06 11:00:00 13.7 6 Oeste 24 Oeste 0 1009.5 0.8 74
2019-04-06 10:00:00 13.1 4 Oeste 14 Sudoeste 0 1009.5 1.1 75
2019-04-06 09:00:00 12.2 4 Oeste 14 Noroeste 0 1009 1.2 78
2019-04-06 08:00:00 11.6 4 Noroeste 11 Noroeste 0 1008.7 1 77
2019-04-06 07:00:00 11.7 3 Oeste 13 Oeste 0 1008.4 0.6 76
2019-04-06 06:00:00 12.1 4 Noroeste 23 Oeste 0 1007.8 0.1 72
2019-04-06 05:00:00 12.6 7 Oeste 24 Oeste 0 1007.7 -0.2 71
2019-04-06 04:00:00 12.3 3 Noroeste 14 Oeste 0 1007.8 0.1 68
2019-04-06 03:00:00 12.9 7 Oeste 13 Oeste 0 1007.7 0.3 66
2019-04-06 02:00:00 13.1 5 Oeste 15 Oeste 0 1007.9 1.4 67
2019-04-06 01:00:00 13.6 2 Oeste 14 Norte 0 1007.7 1.9 68
2019-04-06 00:00:00 13.4 7 Norte 18 Oeste 0 1007.4 2.5 66
2019-04-05 23:00:00 13.9 6 Oeste 27 Oeste 0 1006.5 2.2 65
2019-04-05 22:00:00 14.1 8 Oeste 26 Oeste 0 1005.8 2.3 63
2019-04-05 21:00:00 14.8 6 Oeste 33 Oeste 0 1004.9 2.2 57
2019-04-05 20:00:00 16.3 8 Oeste 31 Oeste 0 1004.3 1.6 50
2019-04-05 19:00:00 17 8 Oeste 48 Oeste 0 1003.5 0.9 49
2019-04-05 18:00:00 17.1 12 Oeste 39 Oeste 0 1002.7 -0.4 48
2019-04-05 17:00:00 16.2 9 Oeste 39 Noroeste 0 1002.7 -0.6 55
2019-04-05 16:00:00 14.9 9 Sudeste 16 Sudeste 0 1002.6 -0.6 85
2019-04-05 15:00:00 13.9 4 Oeste 22 Oeste 0 1003.1 -0.6 90
2019-04-05 14:00:00 12.7 4 Oeste 39 Oeste 2.5 1003.3 -0.3 96
2019-04-05 13:00:00 12.9 7 Oeste 32 Sudoeste 0.8 1003.2 0.4 93
2019-04-05 12:00:00 13.4 7 Oeste 20 Oeste 0 1003.7 0.4 92
2019-04-05 11:00:00 12.9 4 Sudoeste 34 Sudoeste 0.8 1003.6 0.3 93
2019-04-05 10:00:00 13.7 10 Oeste 42 Sudoeste 0.5 1002.8 -0.8 94
2019-04-05 09:00:00 12.9 7 Oeste 35 Oeste 2.7 1003.3 0 96
2019-04-05 08:00:00 13.8 10 Oeste 32 Oeste 0 1003.3 -0.7 87
2019-04-05 07:00:00 14 5 Oeste 27 Oeste 0 1003.6 -0.5 77
2019-04-05 06:00:00 14.2 7 Oeste 28 Oeste 0 1003.3 -1.3 73
2019-04-05 05:00:00 14.5 5 Oeste 23 Oeste 0 1004 -0.6 65
2019-04-05 04:00:00 14.4 5 Oeste 21 Oeste 0 1004.1 -0.4 63
2019-04-05 03:00:00 14.1 5 Noroeste 23 Oeste 0 1004.6 0.2 64
2019-04-05 02:00:00 14 9 Oeste 32 Oeste 0 1004.6 0.4 63
2019-04-05 01:00:00 14.2 9 Oeste 30 Oeste 0 1004.5 1 63
2019-04-05 00:00:00 14 12 Oeste 31 Oeste 0 1004.4 1.3 66
2019-04-04 23:00:00 14.6 10 Oeste 28 Oeste 0 1004.2 1.2 65
2019-04-04 22:00:00 15.1 10 Oeste 31 Oeste 0 1003.5 0.3 65
2019-04-04 21:00:00 15.6 8 Oeste 43 Oeste 0 1003.1 -0.2 68
2019-04-04 20:00:00 16.4 9 Oeste 35 Oeste 0 1003 -0.1 69
2019-04-04 19:00:00 16.5 9 Oeste 41 Sudoeste 0 1003.2 -0.1 68
2019-04-04 18:00:00 16.8 11 Sudoeste 40 Sudoeste 0 1003.3 -0.2 67
2019-04-04 17:00:00 17.5 13 Oeste 35 Oeste 0 1003.1 -0.8 66
2019-04-04 16:00:00 17.2 12 Sudoeste 35 Sudoeste 0 1003.3 -1.1 67
2019-04-04 15:00:00 18.1 8 Sudoeste 36 Sudoeste 0 1003.5 -1.1 53
2019-04-04 14:00:00 18 8 Oeste 28 Sur 0 1003.9 -0.2 55
2019-04-04 13:00:00 16.5 6 Sudoeste 28 Sudoeste 0 1004.4 0.7 61
2019-04-04 12:00:00 15.9 16 Sudoeste 26 Sudoeste 0 1004.6 1.1 63
2019-04-04 11:00:00 16.8 2 Sur 14 Oeste 0 1004.1 1.5 50
2019-04-04 10:00:00 15.6 3 Sudoeste 10 Noroeste 0 1003.7 1.8 51
2019-04-04 09:00:00 14.6 0 Calma 14 Noroeste 0 1003.5 2.1 52
2019-04-04 08:00:00 14.8 8 Norte 16 Norte 0 1002.6 1.3 51
2019-04-04 07:00:00 15.1 7 Noroeste 15 Noroeste 0 1001.9 0.8 52
2019-04-04 06:00:00 15.7 4 Noroeste 16 Noroeste 0 1001.4 0 53
2019-04-04 05:00:00 16.3 2 Noroeste 15 Oeste 0 1001.3 -0.5 55
2019-04-04 04:00:00 17.2 2 Oeste 17 Norte 0 1001.1 -1.2 55
2019-04-04 03:00:00 17.3 6 Noroeste 16 Noroeste 0 1001.4 -1.1 55
2019-04-04 02:00:00 17.1 6 Oeste 19 Oeste 0 1001.8 -0.8 55
2019-04-04 01:00:00 17.9 3 Sudoeste 11 Oeste 0 1002.3 0.1 52
2019-04-04 00:00:00 18.1 0 Calma 12 Este 0 1002.5 0.6 54
2019-04-03 23:00:00 18.9 3 Nordeste 14 Nordeste 0 1002.6 0.8 53
2019-04-03 22:00:00 19.8 4 Norte 17 Este 0 1002.2 0.1 52
2019-04-03 21:00:00 19.7 2 Oeste 10 Sur 0 1001.9 -0.7 72
2019-04-03 20:00:00 21.9 3 Oeste 15 Oeste 0 1001.8 -1.6 57
2019-04-03 19:00:00 20 3 Sudoeste 24 Sudoeste 0 1002.1 -2.5 74
2019-04-03 18:00:00 20.1 8 Sudoeste 23 Sur 0 1002.6 -3.4 68
2019-04-03 17:00:00 20 7 Sudoeste 25 Sudoeste 0 1003.4 -3.6 65
2019-04-03 16:00:00 19.1 7 Sudoeste 25 Sur 0 1004.6 -3.3 71
2019-04-03 15:00:00 17.6 17 Sur 25 Sur 0 1006 -2.2 86
2019-04-03 14:00:00 17.2 10 Sur 16 Sur 0 1007 -0.8 89
2019-04-03 13:00:00 16.3 9 Sur 18 Sur 0 1007.9 -0.2 95
2019-04-03 12:00:00 16.3 14 Sur 18 Sur 0 1008.2 -0.3 93
2019-04-03 11:00:00 15.9 4 Sudeste 6 Este 0 1007.8 -1 90
2019-04-03 10:00:00 16 3 Este 9 Norte 0 1008.1 -1 88
2019-04-03 09:00:00 14.7 3 Norte 8 Noroeste 0 1008.5 -1.3 79
2019-04-03 08:00:00 14.6 3 Noroeste 18 Noroeste 0 1008.8 -1.8 77
2019-04-03 07:00:00 15 8 Noroeste 16 Oeste 0 1009.1 -2.1 75
2019-04-03 06:00:00 15 5 Noroeste 16 Oeste 0 1009.8 -1.9 76
2019-04-03 05:00:00 15.2 6 Noroeste 17 Oeste 0 1010.6 -1.8 79
2019-04-03 04:00:00 15.1 6 Noroeste 13 Oeste 0 1011.2 -1.4 81
2019-04-03 03:00:00 15.4 2 Noroeste 12 Oeste 0 1011.7 -1.4 82
2019-04-03 02:00:00 15.7 4 Oeste 11 Sur 0 1012.4 -0.6 83
2019-04-03 01:00:00 16.3 3 Noroeste 13 Oeste 0 1012.6 0 78
2019-04-03 00:00:00 16.9 7 Oeste 14 Oeste 0 1013.1 0.5 75
2019-04-02 23:00:00 17.1 5 Oeste 11 Oeste 0 1013 0.2 74
2019-04-02 22:00:00 17.3 5 Noroeste 19 Oeste 0 1012.6 -0.7 72
2019-04-02 21:00:00 17.9 2 Oeste 13 Oeste 0 1012.6 -0.9 67
2019-04-02 20:00:00 18 3 Sudoeste 11 Oeste 0 1012.8 -0.9 71
2019-04-02 19:00:00 17.8 4 Oeste 17 Oeste 0 1013.3 -1 77
2019-04-02 18:00:00 17.3 6 Sudoeste 23 Sur 0 1013.5 -1.3 85
2019-04-02 17:00:00 17.6 13 Sudoeste 26 Sudoeste 0 1013.7 -1.8 86
2019-04-02 16:00:00 16.7 17 Sudoeste 32 Sudoeste 0 1014.3 -1.7 90
2019-04-02 15:00:00 17.4 7 Sur 11 Sur 0 1014.8 -1.5 85
2019-04-02 14:00:00 16.7 5 Sur 13 Sudeste 0 1015.5 -0.6 85
2019-04-02 13:00:00 16.3 9 Sudeste 12 Sudeste 0 1016 0.2 91
2019-04-02 12:00:00 15.7 7 Sudeste 11 Sudeste 0 1016.3 0.6 94
2019-04-02 11:00:00 15.2 5 Este 9 Este 0 1016.1 0.7 93
2019-04-02 10:00:00 13.7 0 Calma 10 Oeste 0 1015.8 0.5 92
2019-04-02 09:00:00 12.8 5 Noroeste 12 Oeste 0 1015.7 0.6 93
2019-04-02 08:00:00 12.4 5 Noroeste 11 Oeste 0 1015.4 0 93
2019-04-02 07:00:00 13 8 Noroeste 14 Noroeste 0 1015.3 -0.4 93
2019-04-02 06:00:00 12.7 7 Oeste 15 Oeste 0 1015.1 -1.1 93
2019-04-02 05:00:00 13.1 8 Oeste 14 Oeste 0 1015.4 -0.7 93
2019-04-02 04:00:00 13.3 7 Oeste 15 Oeste 0 1015.7 -0.6 93
2019-04-02 03:00:00 13.7 4 Noroeste 11 Oeste 0 1016.2 0.1 93
2019-04-02 02:00:00 14.3 4 Noroeste 11 Oeste 0 1016.1 0.4 92
2019-04-02 01:00:00 14.7 4 Noroeste 10 Oeste 0 1016.3 1.1 92
2019-04-02 00:00:00 15 5 Oeste 12 Noroeste 0 1016.1 1.5 91
2019-04-01 23:00:00 15.8 4 Oeste 12 Oeste 0 1015.7 1.6 89
2019-04-01 22:00:00 16.4 3 Noroeste 9 Oeste 0 1015.2 1.4 87
2019-04-01 21:00:00 16.8 4 Oeste 15 Oeste 0 1014.6 0.9 86
2019-04-01 20:00:00 17.1 4 Sudoeste 17 Sudoeste 0 1014.1 0.2 84
2019-04-01 19:00:00 17 12 Sudoeste 18 Sur 0 1013.8 -0.3 89
2019-04-01 18:00:00 16.8 14 Sur 18 Sudoeste 0 1013.7 -0.8 91
2019-04-01 17:00:00 16.2 13 Sudoeste 21 Sur 0 1013.9 -0.5 92
2019-04-01 16:00:00 16 12 Sur 19 Sudoeste 0.7 1014.1 -0.5 93
2019-04-01 15:00:00 15.9 4 Oeste 19 Sudoeste 1 1014.5 -0.1 92
2019-04-01 14:00:00 16.6 15 Sur 21 Sur 0 1014.4 0.3 92
2019-04-01 13:00:00 16.4 16 Sur 22 Sur 0 1014.6 1.1 92
2019-04-01 12:00:00 15.9 7 Sur 15 Sur 0 1014.6 1.7 96
2019-04-01 11:00:00 15.6 5 Sudeste 8 Sudeste 0 1014.1 1.8 97
2019-04-01 10:00:00 14.8 0 Calma 5 Noroeste 0 1013.5 1.7 97
2019-04-01 09:00:00 14.4 3 Oeste 12 Noroeste 0.2 1012.9 1.1 97
2019-04-01 08:00:00 14 0 Calma 7 Oeste 0 1012.3 0.5 97
2019-04-01 07:00:00 13.8 4 Noroeste 10 Oeste 0 1011.8 -0.5 98
2019-04-01 06:00:00 13.8 6 Oeste 11 Oeste 0 1011.8 -0.6 98
2019-04-01 05:00:00 14.5 3 Noroeste 8 Oeste 0 1011.8 -0.6 97
2019-04-01 04:00:00 14.9 4 Oeste 7 Oeste 0 1012.3 0.2 96
2019-04-01 03:00:00 15.5 0 Calma 3 Oeste 0 1012.4 0.6 95
2019-04-01 02:00:00 15.5 4 Noroeste 7 Noroeste 0 1012.4 0.6 95
2019-04-01 01:00:00 15.5 0 Calma 9 Sudoeste 0 1012.1 0.8 94
2019-04-01 00:00:00 15.8 0 Calma 10 Oeste 0 1011.8 1.5 93
2019-03-31 23:00:00 15.9 3 Oeste 10 Oeste 0 1011.8 2 93
2019-03-31 22:00:00 15.8 3 Oeste 16 Oeste 0 1011.3 1.6 93
2019-03-31 21:00:00 16 5 Oeste 21 Oeste 0 1010.3 1 92
2019-03-31 20:00:00 16.4 5 Oeste 22 Oeste 0 1009.8 0.5 90
2019-03-31 19:00:00 15.9 6 Oeste 30 Sudoeste 0 1009.7 0.1 92
2019-03-31 18:00:00 16.9 9 Sudoeste 25 Sudoeste 0 1009.3 -0.9 90
2019-03-31 17:00:00 16.3 9 Sudoeste 24 Sudoeste 0 1009.3 -1.7 91
2019-03-31 16:00:00 16 6 Sudoeste 25 Sur 0 1009.6 -2 93
2019-03-31 15:00:00 14.9 14 Sudoeste 21 Sur 0 1010.2 -1.7 99
2019-03-31 14:00:00 14.5 10 Sudoeste 19 Sudoeste 0 1011 -0.7 99
2019-03-31 13:00:00 14.4 12 Sur 17 Sur 0 1011.6 0.1 99
2019-03-31 12:00:00 14 3 Sur 6 Sur 0 1011.9 0.4 99
2019-03-31 11:00:00 13.6 0 Calma 4 Sudeste 0.4 1011.7 0 99
2019-03-31 10:00:00 13.4 0 Calma 6 Noroeste 1.8 1011.5 -0.3 99
2019-03-31 09:00:00 13.3 4 Noroeste 8 Noroeste 3.9 1011.5 -0.7 99
2019-03-31 08:00:00 13.2 0 Calma 6 Norte 3.8 1011.7 -0.9 99
2019-03-31 07:00:00 13.3 4 Norte 10 Nordeste 2.6 1011.8 -1.6 99
2019-03-31 06:00:00 13.5 10 Este 20 Sudeste 1.9 1012.2 -1.9 99
2019-03-31 05:00:00 14.1 4 Nordeste 19 Sudeste 1.9 1012.6 -2.4 99
2019-03-31 03:00:00 14.6 19 Sudeste 33 Sudeste 0.8 1014.1 -2.2 98
2019-03-31 01:00:00 14.9 22 Sudeste 59 Este 0.5 1015 -1.2 98
2019-03-31 00:00:00 15 24 Este 33 Este 0.7 1015.8 -0.1 96
2019-03-30 23:00:00 15.5 21 Este 33 Sudeste 0.6 1016.3 0.5 94
2019-03-30 22:00:00 15.6 17 Este 26 Sudeste 0 1016.2 0.4 91
2019-03-30 21:00:00 15.4 12 Este 41 Este 0 1015.9 -0.4 90
2019-03-30 20:00:00 15.5 11 Este 16 Sudeste 0 1015.8 -0.5 90
2019-03-30 19:00:00 15.7 9 Este 20 Sudeste 0 1015.8 -0.3 90
2019-03-30 18:00:00 15.7 16 Sudeste 25 Sudeste 0 1016.3 -0.4 90
2019-03-30 17:00:00 15.8 16 Sudeste 31 Sudeste 0 1016.3 -1.2 89
2019-03-30 16:00:00 15.7 24 Sudeste 36 Sudeste 0 1016.1 -1.9 89
2019-03-30 15:00:00 15.6 26 Sudeste 36 Este 0 1016.7 -2.1 88
2019-03-30 14:00:00 15.5 23 Este 32 Sudeste 0 1017.5 -1.6 87
2019-03-30 13:00:00 15.7 26 Sudeste 36 Sudeste 0.1 1018 -1.3 86
2019-03-30 12:00:00 15.9 23 Este 35 Sudeste 0 1018.8 -0.3 85
2019-03-30 11:00:00 15.7 21 Este 36 Sudeste 0 1019.1 -0.5 84
2019-03-30 10:00:00 15.3 27 Este 38 Este 0 1019.3 -0.4 85
2019-03-30 09:00:00 15 22 Este 36 Sudeste 0 1019.1 -0.6 87
2019-03-30 08:00:00 15 23 Este 32 Sudeste 0 1019.6 -0.6 87
2019-03-30 07:00:00 15 20 Sudeste 32 Sudeste 0 1019.7 -0.6 87
2019-03-30 06:00:00 15.1 21 Sudeste 32 Sudeste 0 1019.7 -1.2 88
2019-03-30 05:00:00 15 21 Sudeste 33 Sudeste 0 1020.2 -1.3 87
2019-03-30 04:00:00 15.2 23 Sudeste 32 Sudeste 0 1020.3 -1.6 87
2019-03-30 03:00:00 15.3 22 Sudeste 34 Sudeste 0 1020.9 -1.6 86
2019-03-30 02:00:00 15.4 21 Sudeste 30 Sudeste 0 1021.5 -1 87
2019-03-30 01:00:00 15.6 23 Sudeste 37 Sudeste 0 1021.9 -0.8 87
2019-03-30 00:00:00 15.6 28 Sudeste 37 Sudeste 0 1022.5 0.5 86
2019-03-29 23:00:00 15.7 23 Sudeste 32 Sudeste 0 1022.5 1.1 85
2019-03-29 22:00:00 15.9 19 Sudeste 29 Sudeste 0 1022.7 1.4 85
2019-03-29 21:00:00 16 17 Sudeste 23 Sudeste 0 1022 0.7 84
2019-03-29 20:00:00 16 15 Sudeste 21 Sudeste 0 1021.4 0.2 83
2019-03-29 19:00:00 16.2 12 Sudeste 21 Sudeste 0 1021.3 -0.3 84
2019-03-29 18:00:00 16.4 13 Sudeste 24 Sudeste 0 1021.3 -0.9 83
2019-03-29 17:00:00 16.7 17 Sudeste 29 Sudeste 0 1021.2 -1.6 82
2019-03-29 16:00:00 16.6 21 Sudeste 29 Sudeste 0 1021.6 -1.3 82
2019-03-29 15:00:00 16.5 21 Sudeste 29 Sudeste 0 1022.2 -1.2 82
2019-03-29 14:00:00 16.6 17 Sudeste 30 Sudeste 0 1022.8 -0.8 81
2019-03-29 13:00:00 16.1 22 Sudeste 32 Sudeste 0 1022.9 -0.9 82
2019-03-29 12:00:00 15.8 24 Sudeste 35 Sudeste 0 1023.4 -0.2 82
2019-03-29 11:00:00 15.4 27 Sudeste 38 Sudeste 0 1023.6 0.4 82
2019-03-29 10:00:00 15.2 27 Sudeste 36 Sudeste 0 1023.8 0.9 82
2019-03-29 09:00:00 15.3 24 Sudeste 36 Sudeste 0 1023.6 1 82
2019-03-29 08:00:00 15.3 26 Sudeste 36 Sudeste 0 1023.2 0.8 81
2019-03-29 07:00:00 15.3 24 Sudeste 38 Sudeste 0 1022.9 0.3 79
2019-03-29 06:00:00 15.3 28 Sudeste 40 Sudeste 0 1022.6 -0.4 77
2019-03-29 05:00:00 15.5 23 Sudeste 36 Sudeste 0 1022.4 -0.8 79
2019-03-29 04:00:00 15.6 28 Sudeste 42 Sudeste 0 1022.6 -0.7 76
2019-03-29 03:00:00 15.7 28 Sudeste 40 Sudeste 0 1023 -0.6 76
2019-03-29 02:00:00 15.6 28 Sudeste 40 Sudeste 0 1023.2 -0.9 76
2019-03-29 01:00:00 15.6 28 Sudeste 40 Sudeste 0 1023.3 -0.9 76
2019-03-29 00:00:00 15.6 25 Sudeste 35 Sudeste 0 1023.6 -0.2 79
2019-03-28 23:00:00 15.6 22 Este 36 Sudeste 0 1024.1 0.9 79
2019-03-28 22:00:00 15.5 26 Este 36 Sudeste 0 1024.2 1.2 79
2019-03-28 21:00:00 15.5 23 Este 34 Sudeste 0 1023.8 0.9 77
2019-03-28 20:00:00 15.7 19 Este 31 Este 0 1023.2 0.3 81
2019-03-28 19:00:00 16.1 17 Este 28 Sudeste 0 1023 -0.3 80
2019-03-28 18:00:00 16.7 20 Este 31 Sudeste 0 1022.9 -0.7 79
2019-03-28 17:00:00 16.8 23 Sudeste 32 Sudeste 0 1022.9 -1.1 79
2019-03-28 16:00:00 16.8 22 Sudeste 36 Sudeste 0 1023.3 -1.3 79
2019-03-28 15:00:00 16.6 26 Sudeste 43 Sudeste 0 1023.6 -1.6 79
2019-03-28 14:00:00 16.6 33 Sudeste 47 Sudeste 0 1024 -1.6 77
2019-03-28 13:00:00 16.6 31 Sudeste 42 Sudeste 0 1024.6 -0.8 76
2019-03-28 12:00:00 16.4 29 Sudeste 41 Este 0 1025.2 0 73
2019-03-28 11:00:00 16.1 32 Este 42 Sudeste 0 1025.6 0.9 74
2019-03-28 10:00:00 15.7 28 Sudeste 39 Sudeste 0 1025.4 1.1 77
2019-03-28 09:00:00 15.1 28 Este 40 Este 0 1025.2 1.3 76
2019-03-28 08:00:00 14.9 28 Sudeste 39 Este 0 1024.7 1.2 78
2019-03-28 07:00:00 14.7 28 Sudeste 40 Sudeste 0 1024.3 0.7 79
2019-03-28 06:00:00 14.7 28 Sudeste 37 Este 0 1023.9 0.2 80
2019-03-28 05:00:00 14.8 25 Sudeste 38 Sudeste 0 1023.5 -0.7 80
2019-03-28 04:00:00 15 23 Sudeste 33 Sudeste 0 1023.6 -1.1 80
2019-03-28 03:00:00 15.2 23 Sudeste 36 Sudeste 0 1023.7 -0.7 79
2019-03-28 02:00:00 15.2 23 Sudeste 37 Sudeste 0 1024.2 -0.1 81
2019-03-28 01:00:00 15.4 28 Sudeste 40 Sudeste 0 1024.7 0.7 77
2019-03-28 00:00:00 15.6 28 Sudeste 43 Sudeste 0 1024.4 1 82
2019-03-27 23:00:00 15.8 23 Sudeste 34 Sudeste 0 1024.3 1.8 82
2019-03-27 22:00:00 16 24 Sudeste 32 Sudeste 0 1024 2.2 82
2019-03-27 21:00:00 16.1 18 Sudeste 26 Sudeste 0 1023.4 2.1 81
2019-03-27 20:00:00 16.2 14 Sudeste 27 Sudeste 0 1022.5 1.5 79
2019-03-27 19:00:00 16.4 19 Sudeste 31 Sudeste 0 1021.8 0.8 76
2019-03-27 18:00:00 16.7 18 Sudeste 35 Sudeste 0 1021.3 0.5 75
2019-03-27 17:00:00 16.6 23 Sudeste 38 Sudeste 0 1021 0.1 74
2019-03-27 16:00:00 16.6 24 Sudeste 38 Sudeste 0 1021 -0.1 73
2019-03-27 15:00:00 16.2 28 Sudeste 47 Sudeste 0 1020.8 0.1 72
2019-03-27 14:00:00 16.6 27 Sudeste 48 Sudeste 0 1020.9 0.1 71
2019-03-27 13:00:00 16.5 27 Sudeste 47 Sudeste 0 1021.1 1 68
2019-03-27 12:00:00 16.4 33 Sudeste 53 Sudeste 0 1020.7 1.1 68
2019-03-27 11:00:00 15.8 34 Sudeste 54 Sudeste 0 1020.8 1.5 69
2019-03-27 10:00:00 15.3 38 Sudeste 58 Sudeste 0 1020.1 1.1 72
2019-03-27 09:00:00 15 39 Sudeste 64 Sudeste 0 1019.6 1.1 76
2019-03-27 08:00:00 14.8 44 Sudeste 67 Sudeste 0 1019.3 1 76
2019-03-27 07:00:00 15.1 39 Sudeste 63 Sudeste 0 1019 0.8 76
2019-03-27 06:00:00 15.2 37 Sudeste 60 Sudeste 0 1018.5 0.1 76
2019-03-27 05:00:00 15.4 35 Sudeste 55 Sudeste 0 1018.3 0 76
2019-03-27 04:00:00 15.1 39 Sudeste 63 Sudeste 0 1018.2 0 76
2019-03-27 03:00:00 15.3 38 Sudeste 60 Sudeste 0 1018.4 0.9 79
2019-03-27 02:00:00 15.5 36 Sudeste 54 Sudeste 0 1018.3 0.9 80
2019-03-27 01:00:00 15.8 41 Sudeste 57 Sudeste 0 1018.2 1.2 76
2019-03-27 00:00:00 16.2 36 Sudeste 54 Sudeste 0 1017.5 1.3 77